sensor_id;sensor_type;location;lat;lon;timestamp;temperature;humidity
65972;SHT31;52726;48.852;9.152;2024-01-10T00:01:26;-5.83;79.87
65972;SHT31;52726;48.852;9.152;2024-01-10T00:03:55;-5.84;80.06
65972;SHT31;52726;48.852;9.152;2024-01-10T00:06:20;-5.77;79.69
65972;SHT31;52726;48.852;9.152;2024-01-10T00:08:46;-5.77;79.95
65972;SHT31;52726;48.852;9.152;2024-01-10T00:11:11;-5.73;79.17
65972;SHT31;52726;48.852;9.152;2024-01-10T00:13:37;-5.70;78.00
65972;SHT31;52726;48.852;9.152;2024-01-10T00:16:02;-5.59;77.09
65972;SHT31;52726;48.852;9.152;2024-01-10T00:18:27;-5.49;76.22
65972;SHT31;52726;48.852;9.152;2024-01-10T00:20:53;-5.39;74.30
65972;SHT31;52726;48.852;9.152;2024-01-10T00:23:22;-5.33;75.42
65972;SHT31;52726;48.852;9.152;2024-01-10T00:25:48;-5.29;75.00
65972;SHT31;52726;48.852;9.152;2024-01-10T00:28:14;-5.20;74.09
65972;SHT31;52726;48.852;9.152;2024-01-10T00:30:41;-5.16;73.89
65972;SHT31;52726;48.852;9.152;2024-01-10T00:33:07;-5.11;74.15
65972;SHT31;52726;48.852;9.152;2024-01-10T00:35:32;-5.01;72.72
65972;SHT31;52726;48.852;9.152;2024-01-10T00:37:58;-4.97;71.94
65972;SHT31;52726;48.852;9.152;2024-01-10T00:40:24;-4.89;72.19
65972;SHT31;52726;48.852;9.152;2024-01-10T00:42:50;-4.87;72.11
65972;SHT31;52726;48.852;9.152;2024-01-10T00:45:16;-4.78;71.50
65972;SHT31;52726;48.852;9.152;2024-01-10T00:47:42;-4.85;73.05
65972;SHT31;52726;48.852;9.152;2024-01-10T00:50:08;-4.91;73.25
65972;SHT31;52726;48.852;9.152;2024-01-10T00:52:33;-4.91;73.80
65972;SHT31;52726;48.852;9.152;2024-01-10T00:54:59;-4.97;74.32
65972;SHT31;52726;48.852;9.152;2024-01-10T00:57:24;-4.97;74.65
65972;SHT31;52726;48.852;9.152;2024-01-10T00:59:52;-4.98;74.54
65972;SHT31;52726;48.852;9.152;2024-01-10T01:02:18;-4.98;74.44
65972;SHT31;52726;48.852;9.152;2024-01-10T01:04:43;-4.87;72.25
65972;SHT31;52726;48.852;9.152;2024-01-10T01:07:08;-4.80;71.93
65972;SHT31;52726;48.852;9.152;2024-01-10T01:09:34;-4.76;71.56
65972;SHT31;52726;48.852;9.152;2024-01-10T01:11:59;-4.74;71.38
65972;SHT31;52726;48.852;9.152;2024-01-10T01:14:25;-4.70;71.36
65972;SHT31;52726;48.852;9.152;2024-01-10T01:16:50;-4.71;71.79
65972;SHT31;52726;48.852;9.152;2024-01-10T01:19:15;-4.71;71.43
65972;SHT31;52726;48.852;9.152;2024-01-10T01:21:42;-4.61;70.42
65972;SHT31;52726;48.852;9.152;2024-01-10T01:24:07;-4.57;69.78
65972;SHT31;52726;48.852;9.152;2024-01-10T01:26:32;-4.52;69.56
65972;SHT31;52726;48.852;9.152;2024-01-10T01:28:58;-4.49;69.39
65972;SHT31;52726;48.852;9.152;2024-01-10T01:31:23;-4.43;69.10
65972;SHT31;52726;48.852;9.152;2024-01-10T01:33:48;-4.42;69.01
65972;SHT31;52726;48.852;9.152;2024-01-10T01:36:14;-4.36;68.75
65972;SHT31;52726;48.852;9.152;2024-01-10T01:38:39;-4.36;68.89
65972;SHT31;52726;48.852;9.152;2024-01-10T01:41:04;-4.33;68.54
65972;SHT31;52726;48.852;9.152;2024-01-10T01:43:31;-4.34;68.62
65972;SHT31;52726;48.852;9.152;2024-01-10T01:45:57;-4.36;68.56
65972;SHT31;52726;48.852;9.152;2024-01-10T01:48:23;-4.33;68.67
65972;SHT31;52726;48.852;9.152;2024-01-10T01:51:16;-4.32;68.43
65972;SHT31;52726;48.852;9.152;2024-01-10T01:53:44;-4.34;69.47
65972;SHT31;52726;48.852;9.152;2024-01-10T01:56:09;-4.42;69.59
65972;SHT31;52726;48.852;9.152;2024-01-10T01:58:36;-4.39;69.45
65972;SHT31;52726;48.852;9.152;2024-01-10T02:01:03;-4.29;69.07
65972;SHT31;52726;48.852;9.152;2024-01-10T02:03:33;-4.29;68.90
65972;SHT31;52726;48.852;9.152;2024-01-10T02:05:59;-4.25;68.44
65972;SHT31;52726;48.852;9.152;2024-01-10T02:08:26;-4.28;69.25
65972;SHT31;52726;48.852;9.152;2024-01-10T02:10:51;-4.28;68.81
65972;SHT31;52726;48.852;9.152;2024-01-10T02:13:16;-4.30;68.92
65972;SHT31;52726;48.852;9.152;2024-01-10T02:15:43;-4.25;69.01
65972;SHT31;52726;48.852;9.152;2024-01-10T02:18:08;-4.26;69.11
65972;SHT31;52726;48.852;9.152;2024-01-10T02:20:37;-4.25;69.02
65972;SHT31;52726;48.852;9.152;2024-01-10T02:23:03;-4.25;68.98
65972;SHT31;52726;48.852;9.152;2024-01-10T02:25:28;-4.23;69.04
65972;SHT31;52726;48.852;9.152;2024-01-10T02:27:54;-4.29;69.21
65972;SHT31;52726;48.852;9.152;2024-01-10T02:30:19;-4.29;69.66
65972;SHT31;52726;48.852;9.152;2024-01-10T02:32:44;-4.34;69.76
65972;SHT31;52726;48.852;9.152;2024-01-10T02:35:10;-4.33;70.03
65972;SHT31;52726;48.852;9.152;2024-01-10T02:37:35;-4.32;70.17
65972;SHT31;52726;48.852;9.152;2024-01-10T02:40:00;-4.32;69.71
65972;SHT31;52726;48.852;9.152;2024-01-10T02:42:27;-4.16;69.26
65972;SHT31;52726;48.852;9.152;2024-01-10T02:44:53;-4.19;68.85
65972;SHT31;52726;48.852;9.152;2024-01-10T02:47:18;-4.32;69.67
65972;SHT31;52726;48.852;9.152;2024-01-10T02:49:43;-4.34;69.60
65972;SHT31;52726;48.852;9.152;2024-01-10T02:52:09;-4.40;69.93
65972;SHT31;52726;48.852;9.152;2024-01-10T02:54:34;-4.46;70.26
65972;SHT31;52726;48.852;9.152;2024-01-10T02:56:59;-4.52;70.49
65972;SHT31;52726;48.852;9.152;2024-01-10T02:59:25;-4.53;70.83
65972;SHT31;52726;48.852;9.152;2024-01-10T03:01:50;-4.60;71.37
65972;SHT31;52726;48.852;9.152;2024-01-10T03:04:15;-4.68;71.68
65972;SHT31;52726;48.852;9.152;2024-01-10T03:06:41;-4.73;71.97
65972;SHT31;52726;48.852;9.152;2024-01-10T03:09:06;-4.76;72.18
65972;SHT31;52726;48.852;9.152;2024-01-10T03:11:31;-4.71;71.95
65972;SHT31;52726;48.852;9.152;2024-01-10T03:14:04;-4.74;72.24
65972;SHT31;52726;48.852;9.152;2024-01-10T03:16:32;-4.68;72.18
65972;SHT31;52726;48.852;9.152;2024-01-10T03:18:57;-4.61;71.81
65972;SHT31;52726;48.852;9.152;2024-01-10T03:21:22;-4.57;71.93
65972;SHT31;52726;48.852;9.152;2024-01-10T03:23:54;-4.60;71.97
65972;SHT31;52726;48.852;9.152;2024-01-10T03:26:20;-4.59;72.05
65972;SHT31;52726;48.852;9.152;2024-01-10T03:28:45;-4.56;72.10
65972;SHT31;52726;48.852;9.152;2024-01-10T03:31:11;-4.56;72.32
65972;SHT31;52726;48.852;9.152;2024-01-10T03:33:37;-4.60;72.76
65972;SHT31;52726;48.852;9.152;2024-01-10T03:36:03;-4.59;72.66
65972;SHT31;52726;48.852;9.152;2024-01-10T03:38:29;-4.60;72.85
65972;SHT31;52726;48.852;9.152;2024-01-10T03:40:54;-4.57;72.86
65972;SHT31;52726;48.852;9.152;2024-01-10T03:43:19;-4.54;72.75
65972;SHT31;52726;48.852;9.152;2024-01-10T03:45:44;-4.53;73.05
65972;SHT31;52726;48.852;9.152;2024-01-10T03:48:10;-4.42;72.35
65972;SHT31;52726;48.852;9.152;2024-01-10T03:50:35;-4.45;72.79
65972;SHT31;52726;48.852;9.152;2024-01-10T03:53:01;-4.46;72.81
65972;SHT31;52726;48.852;9.152;2024-01-10T03:55:26;-4.45;73.59
65972;SHT31;52726;48.852;9.152;2024-01-10T03:57:52;-4.45;73.68
65972;SHT31;52726;48.852;9.152;2024-01-10T04:00:17;-4.45;73.76
65972;SHT31;52726;48.852;9.152;2024-01-10T04:02:43;-4.42;73.57
65972;SHT31;52726;48.852;9.152;2024-01-10T04:05:09;-4.43;74.18
65972;SHT31;52726;48.852;9.152;2024-01-10T04:07:42;-4.46;74.11
65972;SHT31;52726;48.852;9.152;2024-01-10T04:10:09;-4.43;73.43
65972;SHT31;52726;48.852;9.152;2024-01-10T04:12:39;-4.43;73.22
65972;SHT31;52726;48.852;9.152;2024-01-10T04:15:05;-4.42;73.53
65972;SHT31;52726;48.852;9.152;2024-01-10T04:17:30;-4.40;73.75
65972;SHT31;52726;48.852;9.152;2024-01-10T04:19:56;-4.39;73.93
65972;SHT31;52726;48.852;9.152;2024-01-10T04:22:23;-4.42;74.35
65972;SHT31;52726;48.852;9.152;2024-01-10T04:24:49;-4.42;74.06
65972;SHT31;52726;48.852;9.152;2024-01-10T04:27:14;-4.42;73.77
65972;SHT31;52726;48.852;9.152;2024-01-10T04:29:40;-4.39;74.02
65972;SHT31;52726;48.852;9.152;2024-01-10T04:32:05;-4.34;73.86
65972;SHT31;52726;48.852;9.152;2024-01-10T04:34:31;-4.32;73.21
65972;SHT31;52726;48.852;9.152;2024-01-10T04:36:56;-4.33;73.71
65972;SHT31;52726;48.852;9.152;2024-01-10T04:39:21;-4.33;73.64
65972;SHT31;52726;48.852;9.152;2024-01-10T04:41:47;-4.36;73.85
65972;SHT31;52726;48.852;9.152;2024-01-10T04:44:12;-4.37;73.98
65972;SHT31;52726;48.852;9.152;2024-01-10T04:46:37;-4.34;74.05
65972;SHT31;52726;48.852;9.152;2024-01-10T04:49:03;-4.32;73.52
65972;SHT31;52726;48.852;9.152;2024-01-10T04:51:28;-4.28;73.71
65972;SHT31;52726;48.852;9.152;2024-01-10T04:53:53;-4.26;73.51
65972;SHT31;52726;48.852;9.152;2024-01-10T04:56:19;-4.25;73.41
65972;SHT31;52726;48.852;9.152;2024-01-10T04:58:44;-4.22;73.17
65972;SHT31;52726;48.852;9.152;2024-01-10T05:01:11;-4.12;72.53
65972;SHT31;52726;48.852;9.152;2024-01-10T05:03:36;-4.15;72.69
65972;SHT31;52726;48.852;9.152;2024-01-10T05:06:02;-4.06;72.27
65972;SHT31;52726;48.852;9.152;2024-01-10T05:08:27;-4.09;72.20
65972;SHT31;52726;48.852;9.152;2024-01-10T05:10:52;-4.06;71.98
65972;SHT31;52726;48.852;9.152;2024-01-10T05:13:18;-4.03;72.03
65972;SHT31;52726;48.852;9.152;2024-01-10T05:15:43;-4.03;71.90
65972;SHT31;52726;48.852;9.152;2024-01-10T05:18:09;-4.06;72.47
65972;SHT31;52726;48.852;9.152;2024-01-10T05:20:35;-4.11;72.51
65972;SHT31;52726;48.852;9.152;2024-01-10T05:23:00;-4.13;72.84
65972;SHT31;52726;48.852;9.152;2024-01-10T05:25:26;-4.13;72.91
65972;SHT31;52726;48.852;9.152;2024-01-10T05:27:52;-4.09;72.36
65972;SHT31;52726;48.852;9.152;2024-01-10T05:30:18;-4.11;72.20
65972;SHT31;52726;48.852;9.152;2024-01-10T05:32:44;-4.15;72.34
65972;SHT31;52726;48.852;9.152;2024-01-10T05:35:09;-4.15;72.65
65972;SHT31;52726;48.852;9.152;2024-01-10T05:37:35;-4.16;73.26
65972;SHT31;52726;48.852;9.152;2024-01-10T05:40:01;-4.19;73.27
65972;SHT31;52726;48.852;9.152;2024-01-10T05:42:26;-4.19;73.66
65972;SHT31;52726;48.852;9.152;2024-01-10T05:44:52;-4.18;73.52
65972;SHT31;52726;48.852;9.152;2024-01-10T05:47:17;-4.19;73.59
65972;SHT31;52726;48.852;9.152;2024-01-10T05:49:42;-4.21;74.31
65972;SHT31;52726;48.852;9.152;2024-01-10T05:52:08;-4.22;73.56
65972;SHT31;52726;48.852;9.152;2024-01-10T05:54:33;-4.18;73.46
65972;SHT31;52726;48.852;9.152;2024-01-10T05:56:58;-4.19;73.53
65972;SHT31;52726;48.852;9.152;2024-01-10T05:59:26;-4.21;73.56
65972;SHT31;52726;48.852;9.152;2024-01-10T06:01:59;-4.15;73.40
65972;SHT31;52726;48.852;9.152;2024-01-10T06:04:24;-4.19;73.60
65972;SHT31;52726;48.852;9.152;2024-01-10T06:06:50;-4.22;73.90
65972;SHT31;52726;48.852;9.152;2024-01-10T06:09:15;-4.26;74.11
65972;SHT31;52726;48.852;9.152;2024-01-10T06:11:47;-4.30;74.41
65972;SHT31;52726;48.852;9.152;2024-01-10T06:14:12;-4.30;74.41
65972;SHT31;52726;48.852;9.152;2024-01-10T06:16:37;-4.12;74.67
65972;SHT31;52726;48.852;9.152;2024-01-10T06:19:03;-4.22;74.24
65972;SHT31;52726;48.852;9.152;2024-01-10T06:21:29;-4.28;74.05
65972;SHT31;52726;48.852;9.152;2024-01-10T06:23:54;-4.30;74.11
65972;SHT31;52726;48.852;9.152;2024-01-10T06:26:19;-4.32;74.40
65972;SHT31;52726;48.852;9.152;2024-01-10T06:28:45;-4.34;74.51
65972;SHT31;52726;48.852;9.152;2024-01-10T06:31:10;-4.34;74.68
65972;SHT31;52726;48.852;9.152;2024-01-10T06:33:35;-4.34;75.04
65972;SHT31;52726;48.852;9.152;2024-01-10T06:36:01;-4.40;75.02
65972;SHT31;52726;48.852;9.152;2024-01-10T06:38:26;-4.34;74.40
65972;SHT31;52726;48.852;9.152;2024-01-10T06:40:51;-4.32;74.23
65972;SHT31;52726;48.852;9.152;2024-01-10T06:43:17;-4.33;74.60
65972;SHT31;52726;48.852;9.152;2024-01-10T06:45:42;-4.34;74.58
65972;SHT31;52726;48.852;9.152;2024-01-10T06:48:08;-4.30;74.33
65972;SHT31;52726;48.852;9.152;2024-01-10T06:50:33;-4.36;74.60
65972;SHT31;52726;48.852;9.152;2024-01-10T06:52:59;-4.37;74.78
65972;SHT31;52726;48.852;9.152;2024-01-10T06:55:24;-4.37;74.95
65972;SHT31;52726;48.852;9.152;2024-01-10T06:57:50;-4.43;75.21
65972;SHT31;52726;48.852;9.152;2024-01-10T07:00:21;-4.52;75.74
65972;SHT31;52726;48.852;9.152;2024-01-10T07:02:47;-4.49;75.29
65972;SHT31;52726;48.852;9.152;2024-01-10T07:05:14;-4.46;75.21
65972;SHT31;52726;48.852;9.152;2024-01-10T07:07:40;-4.49;75.21
65972;SHT31;52726;48.852;9.152;2024-01-10T07:10:06;-4.56;75.46
65972;SHT31;52726;48.852;9.152;2024-01-10T07:12:33;-4.61;76.02
65972;SHT31;52726;48.852;9.152;2024-01-10T07:14:58;-4.53;75.63
65972;SHT31;52726;48.852;9.152;2024-01-10T07:17:24;-4.52;75.47
65972;SHT31;52726;48.852;9.152;2024-01-10T07:19:49;-4.54;75.68
65972;SHT31;52726;48.852;9.152;2024-01-10T07:22:15;-4.60;75.64
65972;SHT31;52726;48.852;9.152;2024-01-10T07:24:41;-4.59;75.71
65972;SHT31;52726;48.852;9.152;2024-01-10T07:27:06;-4.64;75.76
65972;SHT31;52726;48.852;9.152;2024-01-10T07:29:33;-4.70;76.37
65972;SHT31;52726;48.852;9.152;2024-01-10T07:31:59;-4.80;76.82
65972;SHT31;52726;48.852;9.152;2024-01-10T07:34:24;-4.94;77.56
65972;SHT31;52726;48.852;9.152;2024-01-10T07:36:49;-5.05;78.15
65972;SHT31;52726;48.852;9.152;2024-01-10T07:39:15;-5.11;78.33
65972;SHT31;52726;48.852;9.152;2024-01-10T07:41:41;-5.16;78.77
65972;SHT31;52726;48.852;9.152;2024-01-10T07:44:07;-5.22;78.99
65972;SHT31;52726;48.852;9.152;2024-01-10T07:46:34;-5.22;78.98
65972;SHT31;52726;48.852;9.152;2024-01-10T07:49:00;-5.16;78.80
65972;SHT31;52726;48.852;9.152;2024-01-10T07:51:25;-5.05;78.51
65972;SHT31;52726;48.852;9.152;2024-01-10T07:53:51;-5.02;78.63
65972;SHT31;52726;48.852;9.152;2024-01-10T07:56:16;-4.97;78.46
65972;SHT31;52726;48.852;9.152;2024-01-10T07:58:42;-4.89;78.35
65972;SHT31;52726;48.852;9.152;2024-01-10T08:01:07;-4.92;79.21
65972;SHT31;52726;48.852;9.152;2024-01-10T08:03:32;-5.02;79.39
65972;SHT31;52726;48.852;9.152;2024-01-10T08:05:58;-5.02;79.58
65972;SHT31;52726;48.852;9.152;2024-01-10T08:08:24;-4.98;79.82
65972;SHT31;52726;48.852;9.152;2024-01-10T08:10:49;-4.89;79.87
65972;SHT31;52726;48.852;9.152;2024-01-10T08:13:14;-4.73;78.87
65972;SHT31;52726;48.852;9.152;2024-01-10T08:15:40;-4.46;77.41
65972;SHT31;52726;48.852;9.152;2024-01-10T08:18:06;-4.30;76.74
65972;SHT31;52726;48.852;9.152;2024-01-10T08:20:32;-4.11;75.82
65972;SHT31;52726;48.852;9.152;2024-01-10T08:22:58;-3.92;75.12
65972;SHT31;52726;48.852;9.152;2024-01-10T08:25:23;-3.85;74.70
65972;SHT31;52726;48.852;9.152;2024-01-10T08:27:48;-3.75;74.38
65972;SHT31;52726;48.852;9.152;2024-01-10T08:30:14;-3.57;73.96
65972;SHT31;52726;48.852;9.152;2024-01-10T08:32:40;-3.43;73.33
65972;SHT31;52726;48.852;9.152;2024-01-10T08:35:06;-3.40;73.66
65972;SHT31;52726;48.852;9.152;2024-01-10T08:37:34;-3.29;73.35
65972;SHT31;52726;48.852;9.152;2024-01-10T08:39:59;-3.19;72.66
65972;SHT31;52726;48.852;9.152;2024-01-10T08:42:26;-3.09;72.44
65972;SHT31;52726;48.852;9.152;2024-01-10T08:44:52;-2.95;71.86
65972;SHT31;52726;48.852;9.152;2024-01-10T08:47:18;-2.96;71.41
65972;SHT31;52726;48.852;9.152;2024-01-10T08:49:43;-2.88;71.62
65972;SHT31;52726;48.852;9.152;2024-01-10T08:52:08;-2.77;70.76
65972;SHT31;52726;48.852;9.152;2024-01-10T08:54:34;-2.77;71.35
65972;SHT31;52726;48.852;9.152;2024-01-10T08:56:59;-2.74;70.82
65972;SHT31;52726;48.852;9.152;2024-01-10T08:59:25;-2.80;70.80
65972;SHT31;52726;48.852;9.152;2024-01-10T09:01:53;-2.87;70.72
65972;SHT31;52726;48.852;9.152;2024-01-10T09:04:18;-2.89;70.84
65972;SHT31;52726;48.852;9.152;2024-01-10T09:06:45;-2.83;70.71
65972;SHT31;52726;48.852;9.152;2024-01-10T09:09:10;-2.88;71.01
65972;SHT31;52726;48.852;9.152;2024-01-10T09:11:38;-2.88;71.51
65972;SHT31;52726;48.852;9.152;2024-01-10T09:14:03;-2.85;71.86
65972;SHT31;52726;48.852;9.152;2024-01-10T09:16:28;-2.89;72.31
65972;SHT31;52726;48.852;9.152;2024-01-10T09:18:53;-2.85;72.38
65972;SHT31;52726;48.852;9.152;2024-01-10T09:21:22;-2.78;71.35
65972;SHT31;52726;48.852;9.152;2024-01-10T09:23:47;-2.85;71.68
65972;SHT31;52726;48.852;9.152;2024-01-10T09:26:16;-2.80;72.65
65972;SHT31;52726;48.852;9.152;2024-01-10T09:28:42;-2.77;72.07
65972;SHT31;52726;48.852;9.152;2024-01-10T09:31:07;-2.71;71.85
65972;SHT31;52726;48.852;9.152;2024-01-10T09:33:32;-2.64;71.48
65972;SHT31;52726;48.852;9.152;2024-01-10T09:35:59;-2.67;70.53
65972;SHT31;52726;48.852;9.152;2024-01-10T09:38:24;-2.54;70.15
65972;SHT31;52726;48.852;9.152;2024-01-10T09:40:51;-2.53;70.60
65972;SHT31;52726;48.852;9.152;2024-01-10T09:43:16;-2.52;70.83
65972;SHT31;52726;48.852;9.152;2024-01-10T09:45:46;-2.49;70.66
65972;SHT31;52726;48.852;9.152;2024-01-10T09:48:14;-2.39;69.79
65972;SHT31;52726;48.852;9.152;2024-01-10T09:50:40;-2.43;70.48
65972;SHT31;52726;48.852;9.152;2024-01-10T09:53:07;-2.33;69.65
65972;SHT31;52726;48.852;9.152;2024-01-10T09:55:36;-2.30;69.67
65972;SHT31;52726;48.852;9.152;2024-01-10T09:58:06;-2.18;69.79
65972;SHT31;52726;48.852;9.152;2024-01-10T10:00:34;-2.05;68.67
65972;SHT31;52726;48.852;9.152;2024-01-10T10:03:01;-2.03;68.34
65972;SHT31;52726;48.852;9.152;2024-01-10T10:05:27;-1.91;68.31
65972;SHT31;52726;48.852;9.152;2024-01-10T10:07:53;-1.98;67.77
65972;SHT31;52726;48.852;9.152;2024-01-10T10:10:19;-1.98;68.70
65972;SHT31;52726;48.852;9.152;2024-01-10T10:12:49;-1.97;68.78
65972;SHT31;52726;48.852;9.152;2024-01-10T10:15:16;-1.97;68.78
65972;SHT31;52726;48.852;9.152;2024-01-10T10:17:46;-1.88;68.80
65972;SHT31;52726;48.852;9.152;2024-01-10T10:20:24;-1.87;69.21
65972;SHT31;52726;48.852;9.152;2024-01-10T10:23:08;-1.80;69.13
65972;SHT31;52726;48.852;9.152;2024-01-10T10:25:42;-1.67;67.90
65972;SHT31;52726;48.852;9.152;2024-01-10T10:28:08;-1.66;67.54
65972;SHT31;52726;48.852;9.152;2024-01-10T10:30:34;-1.59;67.28
65972;SHT31;52726;48.852;9.152;2024-01-10T10:33:00;-1.72;67.55
65972;SHT31;52726;48.852;9.152;2024-01-10T10:35:26;-1.71;68.28
65972;SHT31;52726;48.852;9.152;2024-01-10T10:37:52;-1.50;67.76
65972;SHT31;52726;48.852;9.152;2024-01-10T10:40:18;-1.54;67.62
65972;SHT31;52726;48.852;9.152;2024-01-10T10:42:46;-1.47;68.42
65972;SHT31;52726;48.852;9.152;2024-01-10T10:45:17;-1.40;68.74
65972;SHT31;52726;48.852;9.152;2024-01-10T10:47:45;-1.30;68.44
65972;SHT31;52726;48.852;9.152;2024-01-10T10:50:13;-1.26;68.11
65972;SHT31;52726;48.852;9.152;2024-01-10T10:52:45;-1.12;67.48
65972;SHT31;52726;48.852;9.152;2024-01-10T10:55:14;-1.13;67.09
65972;SHT31;52726;48.852;9.152;2024-01-10T10:57:41;-1.02;66.64
65972;SHT31;52726;48.852;9.152;2024-01-10T11:00:09;-1.01;66.99
65972;SHT31;52726;48.852;9.152;2024-01-10T11:02:37;-0.77;66.27
65972;SHT31;52726;48.852;9.152;2024-01-10T11:05:03;-0.83;66.23
65972;SHT31;52726;48.852;9.152;2024-01-10T11:07:30;-0.99;67.56
65972;SHT31;52726;48.852;9.152;2024-01-10T11:09:55;-1.03;68.17
65972;SHT31;52726;48.852;9.152;2024-01-10T11:15:47;-0.95;67.96
65972;SHT31;52726;48.852;9.152;2024-01-10T11:18:42;-0.88;67.90
65972;SHT31;52726;48.852;9.152;2024-01-10T11:21:22;-0.85;67.68
65972;SHT31;52726;48.852;9.152;2024-01-10T11:23:58;-0.84;68.02
65972;SHT31;52726;48.852;9.152;2024-01-10T11:26:24;-0.80;68.05
65972;SHT31;52726;48.852;9.152;2024-01-10T11:28:50;-0.67;67.01
65972;SHT31;52726;48.852;9.152;2024-01-10T11:31:27;-0.73;68.25
65972;SHT31;52726;48.852;9.152;2024-01-10T11:33:56;-0.80;68.22
65972;SHT31;52726;48.852;9.152;2024-01-10T11:36:22;-0.71;67.06
65972;SHT31;52726;48.852;9.152;2024-01-10T11:41:28;-0.68;67.32
65972;SHT31;52726;48.852;9.152;2024-01-10T11:46:46;-0.78;68.59
65972;SHT31;52726;48.852;9.152;2024-01-10T11:49:14;-0.71;68.39
65972;SHT31;52726;48.852;9.152;2024-01-10T11:51:48;-0.63;68.42
65972;SHT31;52726;48.852;9.152;2024-01-10T11:54:35;-0.46;67.71
65972;SHT31;52726;48.852;9.152;2024-01-10T11:57:01;-0.47;68.04
65972;SHT31;52726;48.852;9.152;2024-01-10T11:59:27;-0.41;67.39
65972;SHT31;52726;48.852;9.152;2024-01-10T12:01:54;-0.41;67.10
65972;SHT31;52726;48.852;9.152;2024-01-10T12:04:19;-0.41;68.37
65972;SHT31;52726;48.852;9.152;2024-01-10T12:06:45;-0.37;67.62
65972;SHT31;52726;48.852;9.152;2024-01-10T12:09:12;-0.37;67.41
65972;SHT31;52726;48.852;9.152;2024-01-10T12:11:39;-0.30;67.19
65972;SHT31;52726;48.852;9.152;2024-01-10T12:14:06;-0.27;67.59
65972;SHT31;52726;48.852;9.152;2024-01-10T12:16:35;-0.30;67.81
65972;SHT31;52726;48.852;9.152;2024-01-10T12:19:01;-0.30;67.97
65972;SHT31;52726;48.852;9.152;2024-01-10T12:21:26;-0.20;67.46
65972;SHT31;52726;48.852;9.152;2024-01-10T12:23:51;-0.17;67.65
65972;SHT31;52726;48.852;9.152;2024-01-10T12:26:18;-0.23;67.91
65972;SHT31;52726;48.852;9.152;2024-01-10T12:28:57;-0.33;68.38
65972;SHT31;52726;48.852;9.152;2024-01-10T12:31:23;-0.22;67.74
65972;SHT31;52726;48.852;9.152;2024-01-10T12:33:50;-0.16;67.77
65972;SHT31;52726;48.852;9.152;2024-01-10T12:36:17;-0.17;67.16
65972;SHT31;52726;48.852;9.152;2024-01-10T12:38:43;-0.23;67.78
65972;SHT31;52726;48.852;9.152;2024-01-10T12:41:09;-0.29;68.10
65972;SHT31;52726;48.852;9.152;2024-01-10T12:43:36;-0.25;67.65
65972;SHT31;52726;48.852;9.152;2024-01-10T12:46:12;-0.26;68.65
65972;SHT31;52726;48.852;9.152;2024-01-10T12:48:39;-0.27;68.04
65972;SHT31;52726;48.852;9.152;2024-01-10T12:51:07;-0.29;68.63
65972;SHT31;52726;48.852;9.152;2024-01-10T12:53:38;-0.27;68.75
65972;SHT31;52726;48.852;9.152;2024-01-10T12:56:04;-0.25;68.88
65972;SHT31;52726;48.852;9.152;2024-01-10T12:58:31;-0.16;67.75
65972;SHT31;52726;48.852;9.152;2024-01-10T13:00:56;-0.06;67.76
65972;SHT31;52726;48.852;9.152;2024-01-10T13:03:22;-0.10;67.91
65972;SHT31;52726;48.852;9.152;2024-01-10T13:05:48;-0.15;68.65
65972;SHT31;52726;48.852;9.152;2024-01-10T13:08:14;-0.12;68.16
65972;SHT31;52726;48.852;9.152;2024-01-10T13:10:39;-0.16;68.09
65972;SHT31;52726;48.852;9.152;2024-01-10T13:13:05;-0.17;68.40
65972;SHT31;52726;48.852;9.152;2024-01-10T13:15:30;-0.05;68.12
65972;SHT31;52726;48.852;9.152;2024-01-10T13:17:56;-0.08;68.08
65972;SHT31;52726;48.852;9.152;2024-01-10T13:20:23;-0.01;67.52
65972;SHT31;52726;48.852;9.152;2024-01-10T13:22:49;0.08;67.14
65972;SHT31;52726;48.852;9.152;2024-01-10T13:25:16;0.08;68.14
65972;SHT31;52726;48.852;9.152;2024-01-10T13:27:41;0.11;67.33
65972;SHT31;52726;48.852;9.152;2024-01-10T13:30:07;0.13;67.18
65972;SHT31;52726;48.852;9.152;2024-01-10T13:32:37;0.22;67.41
65972;SHT31;52726;48.852;9.152;2024-01-10T13:35:03;0.12;68.05
65972;SHT31;52726;48.852;9.152;2024-01-10T13:37:28;0.15;67.75
65972;SHT31;52726;48.852;9.152;2024-01-10T13:39:54;0.21;67.59
65972;SHT31;52726;48.852;9.152;2024-01-10T13:42:20;0.21;67.32
65972;SHT31;52726;48.852;9.152;2024-01-10T13:44:45;0.13;67.47
65972;SHT31;52726;48.852;9.152;2024-01-10T13:47:11;0.11;67.62
65972;SHT31;52726;48.852;9.152;2024-01-10T13:49:37;0.18;67.42
65972;SHT31;52726;48.852;9.152;2024-01-10T13:52:02;0.21;67.12
65972;SHT31;52726;48.852;9.152;2024-01-10T13:54:27;0.15;67.48
65972;SHT31;52726;48.852;9.152;2024-01-10T13:56:53;0.12;67.15
65972;SHT31;52726;48.852;9.152;2024-01-10T13:59:18;0.12;67.41
65972;SHT31;52726;48.852;9.152;2024-01-10T14:01:44;0.16;67.51
65972;SHT31;52726;48.852;9.152;2024-01-10T14:04:09;0.15;67.54
65972;SHT31;52726;48.852;9.152;2024-01-10T14:06:35;0.15;67.79
65972;SHT31;52726;48.852;9.152;2024-01-10T14:09:01;0.12;67.74
65972;SHT31;52726;48.852;9.152;2024-01-10T14:11:27;0.15;67.97
65972;SHT31;52726;48.852;9.152;2024-01-10T14:13:52;0.02;69.89
65972;SHT31;52726;48.852;9.152;2024-01-10T14:16:19;0.01;69.19
65972;SHT31;52726;48.852;9.152;2024-01-10T14:18:44;0.06;67.90
65972;SHT31;52726;48.852;9.152;2024-01-10T14:21:10;0.09;67.42
65972;SHT31;52726;48.852;9.152;2024-01-10T14:23:36;0.09;68.37
65972;SHT31;52726;48.852;9.152;2024-01-10T14:26:01;0.04;67.82
65972;SHT31;52726;48.852;9.152;2024-01-10T14:28:30;0.01;68.63
65972;SHT31;52726;48.852;9.152;2024-01-10T14:30:56;-0.05;69.67
65972;SHT31;52726;48.852;9.152;2024-01-10T14:33:21;-0.05;68.87
65972;SHT31;52726;48.852;9.152;2024-01-10T14:35:46;-0.06;69.87
65972;SHT31;52726;48.852;9.152;2024-01-10T14:38:12;-0.12;69.98
65972;SHT31;52726;48.852;9.152;2024-01-10T14:40:37;-0.19;70.27
65972;SHT31;52726;48.852;9.152;2024-01-10T14:43:03;-0.26;70.63
65972;SHT31;52726;48.852;9.152;2024-01-10T14:45:28;-0.33;71.28
65972;SHT31;52726;48.852;9.152;2024-01-10T14:47:53;-0.36;70.70
65972;SHT31;52726;48.852;9.152;2024-01-10T14:50:19;-0.40;71.62
65972;SHT31;52726;48.852;9.152;2024-01-10T14:52:44;-0.41;71.20
65972;SHT31;52726;48.852;9.152;2024-01-10T14:55:10;-0.46;72.05
65972;SHT31;52726;48.852;9.152;2024-01-10T14:57:35;-0.52;71.98
65972;SHT31;52726;48.852;9.152;2024-01-10T15:00:01;-0.54;71.95
65972;SHT31;52726;48.852;9.152;2024-01-10T15:02:27;-0.54;71.86
65972;SHT31;52726;48.852;9.152;2024-01-10T15:04:52;-0.57;71.49
65972;SHT31;52726;48.852;9.152;2024-01-10T15:07:17;-0.60;71.99
65972;SHT31;52726;48.852;9.152;2024-01-10T15:09:43;-0.73;73.22
65972;SHT31;52726;48.852;9.152;2024-01-10T15:12:09;-0.83;73.79
65972;SHT31;52726;48.852;9.152;2024-01-10T15:14:35;-0.92;74.66
65972;SHT31;52726;48.852;9.152;2024-01-10T15:17:02;-0.99;74.98
65972;SHT31;52726;48.852;9.152;2024-01-10T15:19:30;-1.06;75.24
65972;SHT31;52726;48.852;9.152;2024-01-10T15:21:57;-1.13;75.66
65972;SHT31;52726;48.852;9.152;2024-01-10T15:24:23;-1.23;76.15
65972;SHT31;52726;48.852;9.152;2024-01-10T15:26:49;-1.33;76.59
65972;SHT31;52726;48.852;9.152;2024-01-10T15:29:14;-1.40;77.35
65972;SHT31;52726;48.852;9.152;2024-01-10T15:31:41;-1.44;77.66
65972;SHT31;52726;48.852;9.152;2024-01-10T15:34:07;-1.47;77.77
65972;SHT31;52726;48.852;9.152;2024-01-10T15:36:33;-1.53;77.71